createdAt,value
2019-04-13T00:01:20.113Z,50.18
2019-04-13T00:04:29.665Z,50.14
2019-04-13T00:07:32.362Z,49.51
2019-04-13T00:10:44.434Z,50.48
2019-04-13T00:13:48.871Z,50.47
2019-04-13T00:16:53.298Z,50.40
2019-04-13T00:19:58.170Z,51.68
2019-04-13T00:23:02.615Z,50.90
2019-04-13T00:26:07.426Z,50.52
2019-04-13T00:29:12.098Z,50.88
2019-04-13T00:32:16.531Z,50.56
2019-04-13T00:35:20.973Z,50.88
2019-04-13T00:38:25.415Z,50.53
2019-04-13T00:41:29.843Z,50.19
2019-04-13T00:44:34.289Z,50.72
2019-04-13T00:47:38.718Z,51.11
2019-04-13T00:50:43.161Z,50.57
2019-04-13T00:53:47.606Z,50.52
2019-04-13T00:56:52.035Z,50.65
2019-04-13T00:59:56.484Z,50.72
2019-04-13T01:03:01.222Z,51.42
2019-04-13T01:06:06.055Z,51.54
2019-04-13T01:09:10.571Z,52.00
2019-04-13T01:12:14.996Z,50.49
2019-04-13T01:15:19.439Z,51.60
2019-04-13T01:18:23.884Z,51.30
2019-04-13T01:21:28.314Z,51.19
2019-04-13T01:24:32.787Z,50.72
2019-04-13T01:27:37.224Z,50.59
2019-04-13T01:30:41.665Z,50.68
2019-04-13T01:33:46.106Z,50.88
2019-04-13T01:36:50.543Z,51.07
2019-04-13T01:39:54.988Z,50.66
2019-04-13T01:42:59.419Z,50.31
2019-04-13T01:46:03.862Z,50.73
2019-04-13T01:49:08.299Z,50.55
2019-04-13T01:52:12.735Z,50.73
2019-04-13T01:55:17.185Z,50.53
2019-04-13T01:58:21.683Z,50.98
2019-04-13T02:01:40.123Z,51.19
2019-04-13T02:04:44.340Z,50.76
2019-04-13T02:07:51.942Z,51.10
2019-04-13T02:10:58.430Z,50.74
2019-04-13T02:14:03.154Z,50.49
2019-04-13T02:17:07.979Z,51.70
2019-04-13T02:20:12.558Z,51.47
2019-04-13T02:23:17.334Z,50.86
2019-04-13T02:26:21.784Z,51.61
2019-04-13T02:29:26.246Z,52.12
2019-04-13T02:32:30.680Z,51.72
2019-04-13T02:35:36.813Z,52.03
2019-04-13T02:38:41.477Z,51.93
2019-04-13T02:41:45.895Z,52.03
2019-04-13T02:44:50.356Z,52.26
2019-04-13T02:47:54.772Z,52.38
2019-04-13T02:50:59.505Z,51.63
2019-04-13T02:54:04.240Z,51.96
2019-04-13T02:57:08.685Z,52.75
2019-04-13T03:00:13.337Z,52.13
2019-04-13T03:03:18.118Z,52.51
2019-04-13T03:06:22.568Z,51.95
2019-04-13T03:09:27.277Z,52.30
2019-04-13T03:12:31.891Z,51.87
2019-04-13T03:15:41.238Z,52.23
2019-04-13T03:19:03.406Z,53.15
2019-04-13T03:22:08.210Z,52.61
2019-04-13T03:25:12.940Z,52.54
2019-04-13T03:28:17.674Z,52.38
2019-04-13T03:31:22.128Z,52.63
2019-04-13T03:34:26.830Z,52.87
2019-04-13T03:37:31.556Z,53.17
2019-04-13T03:40:36.283Z,52.86
2019-04-13T03:43:41.019Z,52.85
2019-04-13T03:46:45.460Z,53.47
2019-04-13T03:49:49.897Z,53.06
2019-04-13T03:52:54.345Z,53.00
2019-04-13T03:55:58.793Z,53.21
2019-04-13T03:59:03.548Z,53.65
2019-04-13T04:02:07.989Z,54.55
2019-04-13T04:05:12.699Z,54.34
2019-04-13T04:08:17.839Z,54.27
2019-04-13T04:11:22.285Z,54.45
2019-04-13T04:14:26.799Z,54.08
2019-04-13T04:17:31.733Z,53.98
2019-04-13T04:20:36.455Z,54.20
2019-04-13T04:23:40.891Z,55.11
2019-04-13T04:26:46.935Z,55.81
2019-04-13T04:29:51.395Z,55.66
2019-04-13T04:32:59.014Z,55.48
2019-04-13T04:36:03.796Z,56.42
2019-04-13T04:39:10.079Z,56.13
2019-04-13T04:42:15.511Z,55.95
2019-04-13T04:45:20.854Z,56.37
2019-04-13T04:48:25.328Z,56.38
2019-04-13T04:51:31.236Z,56.97
2019-04-13T04:54:38.050Z,56.90
2019-04-13T04:57:44.683Z,57.01
2019-04-13T05:00:51.135Z,56.15
2019-04-13T05:03:59.155Z,56.92
2019-04-13T05:07:05.743Z,56.62
2019-04-13T05:10:10.424Z,56.52
2019-04-13T05:13:14.869Z,56.20
2019-04-13T05:16:19.306Z,56.30
2019-04-13T05:19:26.912Z,56.55
2019-04-13T05:22:31.653Z,56.61
2019-04-13T05:25:36.098Z,56.43
2019-04-13T05:28:40.541Z,56.52
2019-04-13T05:31:45.903Z,56.73
2019-04-13T05:34:50.574Z,56.48
2019-04-13T05:37:55.358Z,57.21
2019-04-13T05:41:00.032Z,56.37
2019-04-13T05:44:04.490Z,57.91
2019-04-13T05:47:08.926Z,58.10
2019-04-13T05:50:13.918Z,58.09
2019-04-13T05:53:18.658Z,57.13
2019-04-13T05:56:23.379Z,57.39
2019-04-13T05:59:30.819Z,57.23
2019-04-13T06:02:38.162Z,57.03
2019-04-13T06:05:42.659Z,57.48
2019-04-13T06:08:47.145Z,57.25
2019-04-13T06:11:51.581Z,56.95
2019-04-13T06:14:56.268Z,57.12
2019-04-13T06:18:03.319Z,56.76
2019-04-13T06:21:07.670Z,56.32
2019-04-13T06:24:12.513Z,55.71
2019-04-13T06:27:17.239Z,55.20
2019-04-13T06:30:29.142Z,55.14
2019-04-13T06:33:33.670Z,55.65
2019-04-13T06:36:41.590Z,55.38
2019-04-13T06:39:44.867Z,54.74
2019-04-13T06:42:50.678Z,55.31
2019-04-13T06:45:55.625Z,55.00
2019-04-13T06:49:00.394Z,55.79
2019-04-13T06:52:05.229Z,55.32
2019-04-13T06:55:10.010Z,55.29
2019-04-13T06:58:15.796Z,55.42
2019-04-13T07:01:20.778Z,54.83
2019-04-13T07:04:25.217Z,56.29
2019-04-13T07:07:51.221Z,56.62
2019-04-13T07:11:09.964Z,55.82
2019-04-13T07:14:16.268Z,54.91
2019-04-13T07:17:24.995Z,55.69
2019-04-13T07:20:29.442Z,55.31
2019-04-13T07:23:34.214Z,55.34
2019-04-13T07:26:40.334Z,55.52
2019-04-13T07:29:44.985Z,54.84
2019-04-13T07:32:49.427Z,55.89
2019-04-13T07:35:53.868Z,54.71
2019-04-13T07:38:58.589Z,56.45
2019-04-13T07:42:04.895Z,57.06
2019-04-13T07:45:27.341Z,57.31
2019-04-13T07:48:49.517Z,58.56
2019-04-13T07:52:06.981Z,58.15
2019-04-13T07:55:10.326Z,56.83
2019-04-13T07:58:16.789Z,56.10
2019-04-13T08:01:23.355Z,57.19
2019-04-13T08:04:27.268Z,56.38
2019-04-13T08:07:32.081Z,56.60
2019-04-13T08:10:36.573Z,56.59
2019-04-13T08:13:41.045Z,55.88
2019-04-13T08:16:45.592Z,56.39
2019-04-13T08:19:50.526Z,57.28
2019-04-13T08:22:56.376Z,57.16
2019-04-13T08:26:01.035Z,58.64
2019-04-13T08:29:05.863Z,59.06
2019-04-13T08:32:10.398Z,59.63
2019-04-13T08:35:15.137Z,59.62
2019-04-13T08:38:19.775Z,58.88
2019-04-13T08:41:24.334Z,59.10
2019-04-13T08:44:29.169Z,59.55
2019-04-13T08:47:33.972Z,59.87
2019-04-13T08:50:38.498Z,58.31
2019-04-13T08:53:43.005Z,59.14
2019-04-13T08:56:47.469Z,59.91
2019-04-13T08:59:52.282Z,59.15
2019-04-13T09:02:56.798Z,60.24
2019-04-13T09:06:01.260Z,59.08
2019-04-13T09:09:07.601Z,58.32
2019-04-13T09:12:12.067Z,59.24
2019-04-13T09:15:16.967Z,59.96
2019-04-13T09:18:21.254Z,59.26
2019-04-13T09:21:31.837Z,60.49
2019-04-13T09:24:36.491Z,59.11
2019-04-13T09:27:41.431Z,60.61
2019-04-13T09:30:46.336Z,60.79
2019-04-13T09:33:50.793Z,60.65
2019-04-13T09:37:00.066Z,61.19
2019-04-13T09:40:01.772Z,60.67
2019-04-13T09:43:07.869Z,60.28
2019-04-13T09:46:12.320Z,60.90
2019-04-13T09:49:19.569Z,60.26
2019-04-13T09:52:22.922Z,58.51
2019-04-13T09:55:27.777Z,59.50
2019-04-13T09:58:34.974Z,59.10
2019-04-13T10:01:38.372Z,60.50
2019-04-13T10:04:42.822Z,59.84
2019-04-13T10:07:47.515Z,56.58
2019-04-13T10:10:51.963Z,58.00
2019-04-13T10:13:58.323Z,56.76
2019-04-13T10:17:02.532Z,55.96
2019-04-13T10:20:10.407Z,55.03
2019-04-13T10:23:13.730Z,54.23
2019-04-13T10:26:18.177Z,54.27
2019-04-13T10:29:22.920Z,53.74
2019-04-13T10:32:30.872Z,53.20
2019-04-13T10:35:33.513Z,53.63
2019-04-13T10:38:37.953Z,53.33
2019-04-13T10:41:42.382Z,53.29
2019-04-13T10:44:48.816Z,52.76
2019-04-13T10:48:07.033Z,53.35
2019-04-13T10:51:25.186Z,54.62
2019-04-13T10:54:29.643Z,53.21
2019-04-13T10:57:34.072Z,52.27
2019-04-13T11:00:38.528Z,53.84
2019-04-13T11:03:42.983Z,54.30
2019-04-13T11:06:47.714Z,52.85
2019-04-13T11:09:52.164Z,53.54
2019-04-13T11:12:56.878Z,54.21
2019-04-13T11:16:01.390Z,54.04
2019-04-13T11:19:07.790Z,54.45
2019-04-13T11:22:11.992Z,53.78
2019-04-13T11:25:16.573Z,54.00
2019-04-13T11:28:21.785Z,52.95
2019-04-13T11:31:26.428Z,54.21
2019-04-13T11:34:31.209Z,54.21
2019-04-13T11:37:35.642Z,53.10
2019-04-13T11:40:41.042Z,53.70
2019-04-13T11:43:56.657Z,54.92
2019-04-13T11:47:03.040Z,55.67
2019-04-13T11:50:10.325Z,56.32
2019-04-13T11:53:14.814Z,58.12
2019-04-13T11:56:19.574Z,57.53
2019-04-13T11:59:24.056Z,57.79
2019-04-13T12:02:30.206Z,58.76
2019-04-13T12:05:36.661Z,58.91
2019-04-13T12:08:48.151Z,61.02
2019-04-13T12:11:55.308Z,60.72
2019-04-13T12:15:07.159Z,61.21
2019-04-13T12:18:30.516Z,61.16
2019-04-13T12:21:49.334Z,61.02
2019-04-13T12:24:54.185Z,61.45
2019-04-13T12:27:58.910Z,60.94
2019-04-13T12:31:03.362Z,63.57
2019-04-13T12:34:07.986Z,64.72
2019-04-13T12:37:12.431Z,64.56
2019-04-13T12:40:35.343Z,64.77
2019-04-13T12:43:40.280Z,64.37
2019-04-13T12:46:44.723Z,64.66
2019-04-13T12:49:49.433Z,65.46
2019-04-13T12:52:53.946Z,65.01
2019-04-13T12:55:58.620Z,63.38
2019-04-13T12:59:03.062Z,64.89
2019-04-13T13:02:12.450Z,64.56
2019-04-13T13:05:18.535Z,65.01
2019-04-13T13:08:23.040Z,64.53
2019-04-13T13:11:27.759Z,65.33
2019-04-13T13:14:32.668Z,63.81
2019-04-13T13:17:37.130Z,62.98
2019-04-13T13:20:41.862Z,63.20
2019-04-13T13:23:46.605Z,63.68
2019-04-13T13:26:52.192Z,62.55
2019-04-13T13:29:56.934Z,61.86
2019-04-13T13:33:01.405Z,62.81
2019-04-13T13:36:06.125Z,61.90
2019-04-13T13:39:11.516Z,63.66
2019-04-13T13:42:17.146Z,64.03
2019-04-13T13:45:25.012Z,63.77
2019-04-13T13:48:28.115Z,63.05
2019-04-13T13:51:32.560Z,63.55
2019-04-13T13:54:36.995Z,63.84
2019-04-13T13:57:43.102Z,63.84
2019-04-13T14:01:02.295Z,63.06
2019-04-13T14:04:06.796Z,63.48
2019-04-13T14:07:11.245Z,62.74
2019-04-13T14:10:15.756Z,64.64
2019-04-13T14:13:20.184Z,63.89
2019-04-13T14:16:24.707Z,63.52
2019-04-13T14:19:30.250Z,65.00
2019-04-13T14:22:34.860Z,64.31
2019-04-13T14:25:39.628Z,64.55
2019-04-13T14:28:44.068Z,64.41
2019-04-13T14:31:48.509Z,64.93
2019-04-13T14:34:53.276Z,64.90
2019-04-13T14:37:57.659Z,64.60
2019-04-13T14:41:02.100Z,64.84
2019-04-13T14:44:06.550Z,66.76
2019-04-13T14:47:10.990Z,66.45
2019-04-13T14:50:15.724Z,65.57
2019-04-13T14:53:20.468Z,65.67
2019-04-13T14:56:24.908Z,66.11
2019-04-13T14:59:29.614Z,66.33
2019-04-13T15:02:34.355Z,65.71
2019-04-13T15:05:38.781Z,66.29
2019-04-13T15:08:43.889Z,65.05
2019-04-13T15:11:49.673Z,65.80
2019-04-13T15:14:54.225Z,65.51
2019-04-13T15:18:03.021Z,64.26
2019-04-13T15:21:08.867Z,66.60
2019-04-13T15:24:16.649Z,65.63
2019-04-13T15:27:20.625Z,66.40
2019-04-13T15:30:25.433Z,65.80
2019-04-13T15:33:30.567Z,66.06
2019-04-13T15:36:35.733Z,65.40
2019-04-13T15:39:42.781Z,66.06
2019-04-13T15:42:55.203Z,66.74
2019-04-13T15:45:54.138Z,67.12
2019-04-13T15:49:00.414Z,67.28
2019-04-13T15:52:05.801Z,67.37
2019-04-13T15:55:10.342Z,69.02
2019-04-13T15:58:14.788Z,68.58
2019-04-13T16:01:19.563Z,69.12
2019-04-13T16:04:24.426Z,68.28
2019-04-13T16:07:30.059Z,68.00
2019-04-13T16:10:36.558Z,68.20
2019-04-13T16:13:41.279Z,68.15
2019-04-13T16:16:45.859Z,67.82
2019-04-13T16:19:50.361Z,68.14
2019-04-13T16:22:55.788Z,67.80
2019-04-13T16:26:00.281Z,69.17
2019-04-13T16:29:07.638Z,69.33
2019-04-13T16:32:19.215Z,69.58
2019-04-13T16:35:33.035Z,69.84
2019-04-13T16:38:49.371Z,69.87
2019-04-13T16:41:56.703Z,69.86
2019-04-13T16:44:58.899Z,69.79
2019-04-13T16:48:14.703Z,70.28
2019-04-13T16:51:21.900Z,70.29
2019-04-13T16:54:46.555Z,70.42
2019-04-13T16:57:58.821Z,70.34
2019-04-13T17:01:08.860Z,70.26
2019-04-13T17:04:19.260Z,70.95
2019-04-13T17:07:24.088Z,71.46
2019-04-13T17:10:29.263Z,71.35
2019-04-13T17:13:34.721Z,71.86
2019-04-13T17:16:39.460Z,71.67
2019-04-13T17:19:45.545Z,71.60
2019-04-13T17:23:08.545Z,72.44
2019-04-13T17:26:17.347Z,73.63
2019-04-13T17:29:33.744Z,74.30
2019-04-13T17:32:56.359Z,73.24
2019-04-13T17:36:03.989Z,74.93
2019-04-13T17:39:08.831Z,74.95
2019-04-13T17:42:34.297Z,75.89
2019-04-13T17:45:50.589Z,76.26
2019-04-13T17:48:57.082Z,76.52
2019-04-13T17:52:21.222Z,75.38
2019-04-13T17:55:31.820Z,76.70
2019-04-13T17:58:44.087Z,77.10
2019-04-13T18:01:50.825Z,76.17
2019-04-13T18:05:13.324Z,77.52
2019-04-13T18:08:43.061Z,77.19
2019-04-13T18:11:42.607Z,77.17
2019-04-13T18:14:46.976Z,77.22
2019-04-13T18:17:59.648Z,77.76
2019-04-13T18:21:05.627Z,76.55
2019-04-13T18:24:11.440Z,76.42
2019-04-13T18:27:17.292Z,76.62
2019-04-13T18:30:29.483Z,77.28
2019-04-13T18:33:28.361Z,77.67
2019-04-13T18:36:34.163Z,77.28
2019-04-13T18:39:39.107Z,77.37
2019-04-13T18:42:54.762Z,77.16
2019-04-13T18:45:49.998Z,76.54
2019-04-13T18:48:55.376Z,76.97
2019-04-13T18:52:00.734Z,76.71
2019-04-13T18:55:08.076Z,76.47
2019-04-13T18:58:12.928Z,76.67
2019-04-13T19:01:20.157Z,77.01
2019-04-13T19:04:23.911Z,76.79
2019-04-13T19:07:30.138Z,75.61
2019-04-13T19:10:35.079Z,76.04
2019-04-13T19:13:39.537Z,76.58
2019-04-13T19:16:43.986Z,76.42
2019-04-13T19:19:48.428Z,75.83
2019-04-13T19:22:53.215Z,76.13
2019-04-13T19:25:57.657Z,76.09
2019-04-13T19:29:02.362Z,76.59
2019-04-13T19:32:06.810Z,76.32
2019-04-13T19:35:12.752Z,77.44
2019-04-13T19:38:17.193Z,76.35
2019-04-13T19:41:21.900Z,76.23
2019-04-13T19:44:26.353Z,76.97
2019-04-13T19:47:30.795Z,76.54
2019-04-13T19:50:35.582Z,77.03
2019-04-13T19:53:41.688Z,76.91
2019-04-13T19:56:46.134Z,76.61
2019-04-13T19:59:50.902Z,76.37
2019-04-13T20:02:55.643Z,76.09
2019-04-13T20:06:00.079Z,76.41
2019-04-13T20:09:07.316Z,76.47
2019-04-13T20:12:11.780Z,76.61
2019-04-13T20:15:16.284Z,76.39
2019-04-13T20:18:21.231Z,76.25
2019-04-13T20:21:26.070Z,77.06
2019-04-13T20:24:30.807Z,77.35
2019-04-13T20:27:35.231Z,76.48
2019-04-13T20:30:41.236Z,76.79
2019-04-13T20:33:46.215Z,76.71
2019-04-13T20:36:50.651Z,75.84
2019-04-13T20:40:12.748Z,76.59
2019-04-13T20:43:18.594Z,76.86
2019-04-13T20:46:23.610Z,77.80
2019-04-13T20:49:28.188Z,77.58
2019-04-13T20:52:33.028Z,77.43
2019-04-13T20:55:37.540Z,77.42
2019-04-13T20:58:42.391Z,77.20
2019-04-13T21:01:47.441Z,76.81
2019-04-13T21:04:52.359Z,77.42
2019-04-13T21:07:57.579Z,76.74
2019-04-13T21:11:02.168Z,76.53
2019-04-13T21:14:14.346Z,76.36
2019-04-13T21:17:22.387Z,76.95
2019-04-13T21:20:27.220Z,77.04
2019-04-13T21:23:32.089Z,77.01
2019-04-13T21:26:37.061Z,77.99
2019-04-13T21:29:42.434Z,77.70
2019-04-13T21:32:46.873Z,77.90
2019-04-13T21:35:51.656Z,77.20
2019-04-13T21:38:56.392Z,76.76
2019-04-13T21:42:03.722Z,76.97
2019-04-13T21:45:08.073Z,77.38
2019-04-13T21:48:13.161Z,77.66
2019-04-13T21:51:20.452Z,77.10
2019-04-13T21:54:27.995Z,77.27
2019-04-13T21:57:32.974Z,76.96
2019-04-13T22:01:08.374Z,76.95
2019-04-13T22:04:13.277Z,76.83
2019-04-13T22:07:18.060Z,77.29
2019-04-13T22:10:22.594Z,77.16
2019-04-13T22:13:27.104Z,78.16
2019-04-13T22:16:32.018Z,77.52
2019-04-13T22:19:37.474Z,77.73
2019-04-13T22:22:42.571Z,77.57
2019-04-13T22:25:47.493Z,77.50
2019-04-13T22:29:02.864Z,78.07
2019-04-13T22:32:07.711Z,78.01
2019-04-13T22:35:30.411Z,76.97
2019-04-13T22:38:34.923Z,77.52
2019-04-13T22:41:39.628Z,78.18
2019-04-13T22:44:51.070Z,77.66
2019-04-13T22:47:52.155Z,76.78
2019-04-13T22:50:59.649Z,76.35
2019-04-13T22:54:21.776Z,77.73
2019-04-13T22:57:31.025Z,76.59
2019-04-13T23:00:38.663Z,76.65
2019-04-13T23:03:44.032Z,76.92
2019-04-13T23:06:48.982Z,76.32
2019-04-13T23:09:54.198Z,77.31
2019-04-13T23:12:59.322Z,77.24
2019-04-13T23:16:04.254Z,76.91
2019-04-13T23:19:09.005Z,77.27
2019-04-13T23:22:14.537Z,76.78
2019-04-13T23:25:20.139Z,77.72
2019-04-13T23:28:25.025Z,77.06
2019-04-13T23:31:30.421Z,76.64
2019-04-13T23:34:35.468Z,76.82
2019-04-13T23:37:40.983Z,76.82
2019-04-13T23:40:46.308Z,76.57
2019-04-13T23:43:51.829Z,76.84
2019-04-13T23:46:56.879Z,76.81
2019-04-13T23:50:02.130Z,78.49
2019-04-13T23:53:07.837Z,77.55
2019-04-13T23:56:19.499Z,77.61
2019-04-13T23:59:28.646Z,77.55
